createdAt,value
2016-02-22T00:00:51.848Z,20.59
2016-02-22T00:01:51.835Z,20.62
2016-02-22T00:02:51.823Z,20.54
2016-02-22T00:03:51.825Z,20.5
2016-02-22T00:04:51.640Z,20.42
2016-02-22T00:05:51.787Z,20.49
2016-02-22T00:06:51.758Z,20.49
2016-02-22T00:07:51.745Z,20.49
2016-02-22T00:08:51.716Z,20.34
2016-02-22T00:09:51.704Z,20.41
2016-02-22T00:10:51.690Z,20.46
2016-02-22T00:11:51.678Z,20.43
2016-02-22T00:12:51.680Z,20.42
2016-02-22T00:13:51.652Z,20.34
2016-02-22T00:14:51.639Z,20.35
2016-02-22T00:15:51.630Z,20.39
2016-02-22T00:16:51.602Z,20.38
2016-02-22T00:17:51.589Z,20.33
2016-02-22T00:18:51.561Z,20.33
2016-02-22T00:19:51.532Z,20.35
2016-02-22T00:20:51.550Z,20.33
2016-02-22T00:21:51.506Z,20.41
2016-02-22T00:22:51.524Z,20.35
2016-02-22T00:23:51.480Z,20.34
2016-02-22T00:24:51.468Z,20.41
2016-02-22T00:25:51.454Z,20.34
2016-02-22T00:26:51.441Z,20.33
2016-02-22T00:27:51.413Z,20.31
2016-02-22T00:28:51.400Z,20.39
2016-02-22T00:29:51.403Z,20.28
2016-02-22T00:30:51.390Z,20.31
2016-02-22T00:31:51.362Z,20.31
2016-02-22T00:32:51.332Z,20.35
2016-02-22T00:33:51.320Z,20.3
2016-02-22T00:34:51.322Z,20.28
2016-02-22T00:35:51.278Z,20.28
2016-02-22T00:36:51.281Z,20.25
2016-02-22T00:37:51.299Z,20.28
2016-02-22T00:38:51.255Z,20.25
2016-02-22T00:39:51.211Z,20.2
2016-02-22T00:40:51.214Z,20.24
2016-02-22T00:41:51.200Z,20.16
2016-02-22T00:42:51.172Z,20.18
2016-02-22T00:43:51.159Z,20.2
2016-02-22T00:44:51.131Z,20.24
2016-02-22T00:45:51.117Z,20.16
2016-02-22T00:46:51.119Z,20.2
2016-02-22T00:47:51.092Z,20.13
2016-02-22T00:48:51.079Z,20.18
2016-02-22T00:49:51.066Z,20.09
2016-02-22T00:50:51.052Z,20.16
2016-02-22T00:51:51.041Z,20.21
2016-02-22T00:52:51.011Z,20.15
2016-02-22T00:53:51.013Z,20.1
2016-02-22T00:54:50.985Z,20.1
2016-02-22T00:55:50.973Z,20.15
2016-02-22T00:56:50.960Z,20.23
2016-02-22T00:57:50.931Z,20.13
2016-02-22T00:58:50.934Z,20.2
2016-02-22T00:59:50.889Z,20.18
2016-02-22T01:00:50.877Z,20.13
2016-02-22T01:01:50.879Z,20.18
2016-02-22T01:02:50.850Z,20.12
2016-02-22T01:03:50.854Z,20.2
2016-02-22T01:04:50.841Z,20.12
2016-02-22T01:05:50.812Z,20.18
2016-02-22T01:06:50.798Z,20.12
2016-02-22T01:07:50.818Z,20.13
2016-02-22T01:08:50.758Z,20.2
2016-02-22T01:09:50.729Z,20.12
2016-02-22T01:10:50.716Z,20.08
2016-02-22T01:11:50.703Z,20.09
2016-02-22T01:12:50.689Z,20.12
2016-02-22T01:13:50.692Z,20.13
2016-02-22T01:14:50.664Z,20.18
2016-02-22T01:15:50.636Z,20.13
2016-02-22T01:16:50.638Z,20.12
2016-02-22T01:17:50.610Z,20.2
2016-02-22T01:18:50.597Z,20.16
2016-02-22T01:19:50.568Z,20.18
2016-02-22T01:20:50.555Z,20.16
2016-02-22T01:21:50.558Z,20.13
2016-02-22T01:22:50.529Z,20.15
2016-02-22T01:23:50.532Z,20.25
2016-02-22T01:24:50.504Z,20.23
2016-02-22T01:25:50.490Z,20.23
2016-02-22T01:26:50.462Z,20.18
2016-02-22T01:27:50.449Z,20.13
2016-02-22T01:28:50.421Z,20.13
2016-02-22T01:29:50.407Z,20.13
2016-02-22T01:30:50.426Z,20.09
2016-02-22T01:31:50.382Z,20.09
2016-02-22T01:32:50.368Z,20.12
2016-02-22T01:33:50.371Z,20.1
2016-02-22T01:34:50.328Z,20.18
2016-02-22T01:35:50.330Z,20.16
2016-02-22T01:36:50.301Z,20.23
2016-02-22T01:37:50.289Z,20.18
2016-02-22T01:38:50.292Z,20.18
2016-02-22T01:39:50.278Z,20.12
2016-02-22T01:40:50.234Z,20.12
2016-02-22T01:41:50.237Z,20.12
2016-02-22T01:42:50.192Z,20.15
2016-02-22T01:43:50.180Z,20.13
2016-02-22T01:44:50.167Z,20.13
2016-02-22T01:45:50.153Z,20.15
2016-02-22T01:46:50.156Z,20.12
2016-02-22T01:47:50.128Z,20.09
2016-02-22T01:48:50.116Z,20.13
2016-02-22T01:49:50.102Z,20.21
2016-02-22T01:50:50.074Z,20.13
2016-02-22T01:51:50.077Z,20.12
2016-02-22T01:52:50.032Z,20.25
2016-02-22T01:53:50.035Z,20.12
2016-02-22T01:54:50.022Z,20.13
2016-02-22T01:55:49.993Z,20.13
2016-02-22T01:56:49.980Z,20.15
2016-02-22T01:57:49.952Z,20.2
2016-02-22T01:58:49.954Z,20.15
2016-02-22T01:59:49.926Z,20.23
2016-02-22T02:00:49.929Z,20.23
2016-02-22T02:01:49.884Z,20.2
2016-02-22T02:02:49.887Z,20.15
2016-02-22T02:03:49.874Z,20.1
2016-02-22T02:04:49.862Z,20.2
2016-02-22T02:05:49.848Z,20.12
2016-02-22T02:06:49.804Z,20.13
2016-02-22T02:07:49.807Z,20.18
2016-02-22T02:08:49.794Z,20.1
2016-02-22T02:09:49.781Z,20.13
2016-02-22T02:10:49.737Z,20.15
2016-02-22T02:11:49.739Z,20.1
2016-02-22T02:12:49.726Z,20.12
2016-02-22T02:13:49.729Z,20.13
2016-02-22T02:14:49.700Z,20.13
2016-02-22T02:15:49.688Z,20.12
2016-02-22T02:16:49.658Z,20.15
2016-02-22T02:17:49.630Z,20.12
2016-02-22T02:18:49.633Z,20.12
2016-02-22T02:19:49.619Z,20.15
2016-02-22T02:20:49.591Z,20.12
2016-02-22T02:21:49.579Z,20.13
2016-02-22T02:22:49.550Z,20.15
2016-02-22T02:23:49.552Z,20.12
2016-02-22T02:24:49.525Z,20.13
2016-02-22T02:25:49.511Z,20.15
2016-02-22T02:26:49.483Z,20.1
2016-02-22T02:27:49.471Z,20.12
2016-02-22T02:28:49.473Z,20.12
2016-02-22T02:29:49.444Z,20.09
2016-02-22T02:30:49.432Z,20.15
2016-02-22T02:31:49.418Z,20.16
2016-02-22T02:32:49.405Z,20.15
2016-02-22T02:33:49.393Z,20.18
2016-02-22T02:34:49.364Z,20.13
2016-02-22T02:35:49.335Z,20.15
2016-02-22T02:36:49.354Z,20.18
2016-02-22T02:37:49.325Z,20.16
2016-02-22T02:38:49.312Z,20.13
2016-02-22T02:39:49.284Z,20.1
2016-02-22T02:40:49.270Z,20.2
2016-02-22T02:41:49.242Z,20.09
2016-02-22T02:42:49.245Z,20.15
2016-02-22T02:43:49.216Z,20.15
2016-02-22T02:44:49.219Z,20.13
2016-02-22T02:45:49.205Z,20.15
2016-02-22T02:46:49.177Z,20.18
2016-02-22T02:47:49.164Z,20.12
2016-02-22T02:48:49.151Z,20.13
2016-02-22T02:49:49.122Z,20.18
2016-02-22T02:50:49.125Z,20.1
2016-02-22T02:51:49.080Z,20.13
2016-02-22T02:52:49.083Z,20.13
2016-02-22T02:53:49.055Z,20.2
2016-02-22T02:54:49.057Z,20.15
2016-02-22T02:55:49.045Z,20.12
2016-02-22T02:56:49.016Z,20.21
2016-02-22T02:57:48.988Z,20.13
2016-02-22T02:58:48.974Z,20.09
2016-02-22T02:59:48.977Z,20.15
2016-02-22T03:00:48.949Z,20.12
2016-02-22T03:01:48.936Z,20.16
2016-02-22T03:02:48.923Z,20.09
2016-02-22T03:03:48.895Z,19.98
2016-02-22T03:04:48.898Z,20.1
2016-02-22T03:05:48.854Z,20.15
2016-02-22T03:06:48.856Z,20.08
2016-02-22T03:07:48.843Z,20.06
2016-02-22T03:08:48.815Z,20.1
2016-02-22T03:09:48.801Z,20.1
2016-02-22T03:10:48.804Z,20.2
2016-02-22T03:11:48.776Z,20.09
2016-02-22T03:12:48.762Z,20.16
2016-02-22T03:13:48.734Z,20.1
2016-02-22T03:14:48.721Z,20.08
2016-02-22T03:15:48.709Z,20.08
2016-02-22T03:16:48.711Z,20.08
2016-02-22T03:17:48.666Z,20.16
2016-02-22T03:18:48.669Z,20.13
2016-02-22T03:19:48.626Z,20.12
2016-02-22T03:20:48.628Z,20.08
2016-02-22T03:21:48.630Z,20.09
2016-02-22T03:22:48.603Z,20.13
2016-02-22T03:23:48.558Z,20.13
2016-02-22T03:24:48.576Z,20.13
2016-02-22T03:25:48.532Z,20.09
2016-02-22T03:26:48.519Z,20.09
2016-02-22T03:27:48.507Z,20.15
2016-02-22T03:28:48.493Z,20.12
2016-02-22T03:29:48.496Z,20.1
2016-02-22T03:30:48.452Z,20.03
2016-02-22T03:31:48.455Z,20.09
2016-02-22T03:32:48.426Z,20.16
2016-02-22T03:33:48.413Z,20.09
2016-02-22T03:34:48.401Z,20.02
2016-02-22T03:35:48.387Z,20.13
2016-02-22T03:36:48.374Z,19.97
2016-02-22T03:37:48.345Z,20.12
2016-02-22T03:38:48.332Z,19.98
2016-02-22T03:39:48.320Z,20
2016-02-22T03:40:48.307Z,20.02
2016-02-22T03:41:48.278Z,20
2016-02-22T03:42:48.265Z,20.02
2016-02-22T03:43:48.253Z,19.97
2016-02-22T03:44:48.223Z,19.97
2016-02-22T03:45:48.211Z,20.02
2016-02-22T03:46:48.198Z,20.12
2016-02-22T03:47:48.201Z,20.1
2016-02-22T03:48:48.172Z,20.13
2016-02-22T03:49:48.144Z,20
2016-02-22T03:50:48.146Z,20.02
2016-02-22T03:51:48.117Z,19.98
2016-02-22T03:52:48.105Z,19.97
2016-02-22T03:53:48.092Z,20.03
2016-02-22T03:54:48.094Z,19.98
2016-02-22T03:55:48.050Z,19.97
2016-02-22T03:56:48.053Z,20.02
2016-02-22T03:57:48.025Z,20.13
2016-02-22T03:58:48.011Z,20.09
2016-02-22T03:59:47.999Z,20
2016-02-22T04:00:47.971Z,19.97
2016-02-22T04:01:47.973Z,20.12
2016-02-22T04:02:47.944Z,20
2016-02-22T04:03:47.932Z,20.12
2016-02-22T04:04:47.902Z,20
2016-02-22T04:05:47.890Z,20.15
2016-02-22T04:06:47.893Z,20
2016-02-22T04:07:47.864Z,20.06
2016-02-22T04:08:47.851Z,19.98
2016-02-22T04:09:47.838Z,20.03
2016-02-22T04:10:47.825Z,20
2016-02-22T04:11:47.796Z,20
2016-02-22T04:12:47.784Z,20.03
2016-02-22T04:13:47.756Z,20.02
2016-02-22T04:14:47.742Z,19.97
2016-02-22T04:15:47.745Z,20.1
2016-02-22T04:16:47.717Z,20.09
2016-02-22T04:17:47.703Z,20.02
2016-02-22T04:18:47.690Z,20
2016-02-22T04:19:47.661Z,20.03
2016-02-22T04:20:47.664Z,20.03
2016-02-22T04:21:47.636Z,19.97
2016-02-22T04:22:47.622Z,20.02
2016-02-22T04:23:47.610Z,20
2016-02-22T04:24:47.597Z,20.03
2016-02-22T04:25:47.599Z,20
2016-02-22T04:26:47.555Z,20.06
2016-02-22T04:27:47.558Z,20.03
2016-02-22T04:28:47.513Z,20
2016-02-22T04:29:47.501Z,20.02
2016-02-22T04:30:47.488Z,20.02
2016-02-22T04:31:47.460Z,19.97
2016-02-22T04:32:47.462Z,20
2016-02-22T04:33:47.449Z,20.03
2016-02-22T04:34:47.421Z,20
2016-02-22T04:35:47.423Z,20.06
2016-02-22T04:36:47.395Z,20.08
2016-02-22T04:37:47.382Z,20.02
2016-02-22T04:38:47.354Z,19.98
2016-02-22T04:39:47.356Z,19.98
2016-02-22T04:40:47.328Z,19.97
2016-02-22T04:41:47.298Z,19.98
2016-02-22T04:42:47.302Z,19.98
2016-02-22T04:43:47.273Z,20.09
2016-02-22T04:44:47.259Z,20.06
2016-02-22T04:45:47.248Z,20.03
2016-02-22T04:46:47.234Z,20.09
2016-02-22T04:47:47.222Z,20.05
2016-02-22T04:48:47.208Z,20.05
2016-02-22T04:49:47.181Z,20.05
2016-02-22T04:50:47.167Z,20
2016-02-22T04:51:47.138Z,20.02
2016-02-22T04:52:47.125Z,19.98
2016-02-22T04:53:47.127Z,19.98
2016-02-22T04:54:47.100Z,20.08
2016-02-22T04:55:47.086Z,20.03
2016-02-22T04:56:47.058Z,20.03
2016-02-22T04:57:47.061Z,20.02
2016-02-22T04:58:47.032Z,20.03
2016-02-22T04:59:47.019Z,20.03
2016-02-22T05:00:46.990Z,20.08
2016-02-22T05:01:46.978Z,20
2016-02-22T05:02:46.980Z,20.03
2016-02-22T05:03:46.936Z,19.98
2016-02-22T05:04:46.926Z,20
2016-02-22T05:05:46.912Z,19.98
2016-02-22T05:06:46.899Z,20
2016-02-22T05:07:46.902Z,19.98
2016-02-22T05:08:46.858Z,20.05
2016-02-22T05:09:46.845Z,20.03
2016-02-22T05:10:46.832Z,20.03
2016-02-22T05:11:46.819Z,20.03
2016-02-22T05:12:46.790Z,20.06
2016-02-22T05:13:46.809Z,19.98
2016-02-22T05:14:46.765Z,20.08
2016-02-22T05:15:46.752Z,20.06
2016-02-22T05:16:46.739Z,20.06
2016-02-22T05:17:46.711Z,20.1
2016-02-22T05:18:46.713Z,20.02
2016-02-22T05:19:46.683Z,19.97
2016-02-22T05:20:46.671Z,19.98
2016-02-22T05:21:46.659Z,19.95
2016-02-22T05:22:46.630Z,20.1
2016-02-22T05:23:46.632Z,20.02
2016-02-22T05:24:46.605Z,20.09
2016-02-22T05:25:46.591Z,20.03
2016-02-22T05:26:46.577Z,20
2016-02-22T05:27:46.565Z,20.15
2016-02-22T05:28:46.538Z,19.95
2016-02-22T05:29:46.540Z,20.06
2016-02-22T05:30:46.526Z,20.1
2016-02-22T05:31:46.482Z,20.15
2016-02-22T05:32:46.485Z,20.13
2016-02-22T05:33:46.503Z,20
2016-02-22T05:34:46.443Z,20.12
2016-02-22T05:35:46.431Z,19.98
2016-02-22T05:36:46.418Z,20.1
2016-02-22T05:37:46.389Z,20.12
2016-02-22T05:38:46.392Z,20.12
2016-02-22T05:39:46.378Z,20
2016-02-22T05:40:46.350Z,20.02
2016-02-22T05:41:46.322Z,19.95
2016-02-22T05:42:46.325Z,20
2016-02-22T05:43:46.295Z,20.13
2016-02-22T05:44:46.298Z,20.12
2016-02-22T05:45:46.286Z,20
2016-02-22T05:46:46.241Z,20.16
2016-02-22T05:47:46.228Z,20.03
2016-02-22T05:48:46.216Z,20.09
2016-02-22T05:49:46.203Z,20.13
2016-02-22T05:50:46.189Z,20.02
2016-02-22T05:51:46.192Z,20.15
2016-02-22T05:52:46.148Z,20.15
2016-02-22T05:53:46.135Z,20.08
2016-02-22T05:54:46.122Z,20.1
2016-02-22T05:55:46.141Z,20.13
2016-02-22T05:56:46.081Z,20.16
2016-02-22T05:57:46.083Z,20.09
2016-02-22T05:58:46.054Z,20.12
2016-02-22T05:59:46.042Z,20.02
2016-02-22T06:00:46.044Z,19.98
2016-02-22T06:01:46.016Z,20.05
2016-02-22T06:02:45.987Z,19.98
2016-02-22T06:03:45.975Z,20
2016-02-22T06:04:45.805Z,20
2016-02-22T06:05:45.948Z,19.98
2016-02-22T06:06:45.921Z,20
2016-02-22T06:07:45.923Z,20.05
2016-02-22T06:08:45.894Z,20.03
2016-02-22T06:09:45.861Z,20.02
2016-02-22T06:10:45.852Z,19.97
2016-02-22T06:11:45.826Z,19.98
2016-02-22T06:12:45.784Z,20.02
2016-02-22T06:13:45.760Z,20.02
2016-02-22T06:14:45.721Z,19.94
2016-02-22T06:15:45.703Z,20.02
2016-02-22T06:16:45.701Z,20.03
2016-02-22T06:17:45.669Z,19.97
2016-02-22T06:18:45.634Z,20
2016-02-22T06:19:45.649Z,20.09
2016-02-22T06:20:45.604Z,20.02
2016-02-22T06:21:45.621Z,20
2016-02-22T06:22:45.574Z,20
2016-02-22T06:23:45.560Z,20.05
2016-02-22T06:24:45.531Z,19.97
2016-02-22T06:25:45.532Z,19.97
2016-02-22T06:26:45.518Z,19.95
2016-02-22T06:27:45.489Z,20
2016-02-22T06:28:45.476Z,19.97
2016-02-22T06:29:45.446Z,20
2016-02-22T06:30:45.433Z,20.05
2016-02-22T06:31:45.420Z,19.98
2016-02-22T06:32:45.406Z,20
2016-02-22T06:33:45.408Z,20.03
2016-02-22T06:34:45.365Z,20.05
2016-02-22T06:35:45.367Z,20.1
2016-02-22T06:36:45.338Z,20
2016-02-22T06:37:45.326Z,20
2016-02-22T06:38:45.328Z,19.95
2016-02-22T06:39:45.299Z,20.08
2016-02-22T06:40:45.271Z,20.05
2016-02-22T06:41:45.259Z,20.02
2016-02-22T06:42:45.245Z,19.98
2016-02-22T06:43:45.216Z,20
2016-02-22T06:44:45.220Z,20
2016-02-22T06:45:45.190Z,19.98
2016-02-22T06:46:45.178Z,19.98
2016-02-22T06:47:45.165Z,19.97
2016-02-22T06:48:45.137Z,20
2016-02-22T06:49:45.123Z,19.98
2016-02-22T06:50:45.094Z,19.98
2016-02-22T06:51:45.081Z,20
2016-02-22T06:52:45.085Z,20.03
2016-02-22T06:53:45.072Z,20.02
2016-02-22T06:54:45.043Z,20
2016-02-22T06:55:45.030Z,20
2016-02-22T06:56:45.049Z,20
2016-02-22T06:57:45.019Z,20.02
2016-02-22T06:58:44.991Z,20
2016-02-22T06:59:44.978Z,20
2016-02-22T07:00:44.966Z,19.98
2016-02-22T07:01:44.968Z,19.98
2016-02-22T07:02:44.908Z,20.1
2016-02-22T07:03:44.896Z,20
2016-02-22T07:04:44.898Z,19.97
2016-02-22T07:05:44.854Z,20.06
2016-02-22T07:06:44.857Z,20.03
2016-02-22T07:07:44.829Z,20
2016-02-22T07:08:44.831Z,19.97
2016-02-22T07:09:44.802Z,19.97
2016-02-22T07:10:44.789Z,20.03
2016-02-22T07:11:44.760Z,20
2016-02-22T07:12:44.763Z,19.95
2016-02-22T07:13:44.734Z,20.02
2016-02-22T07:14:44.722Z,19.98
2016-02-22T07:15:44.693Z,20
2016-02-22T07:16:44.681Z,20
2016-02-22T07:17:44.683Z,20
2016-02-22T07:18:44.639Z,19.95
2016-02-22T07:19:44.642Z,19.98
2016-02-22T07:20:44.628Z,19.95
2016-02-22T07:21:44.600Z,20.02
2016-02-22T07:22:44.602Z,20.05
2016-02-22T07:23:44.575Z,19.98
2016-02-22T07:24:44.561Z,19.98
2016-02-22T07:25:44.532Z,20.02
2016-02-22T07:26:44.536Z,20
2016-02-22T07:27:44.507Z,19.95
2016-02-22T07:28:44.478Z,20.03
2016-02-22T07:29:44.480Z,20
2016-02-22T07:30:44.297Z,20.03
2016-02-22T07:31:44.455Z,20.02
2016-02-22T07:32:44.426Z,20.06
2016-02-22T07:33:44.445Z,19.98
2016-02-22T07:34:44.385Z,20
2016-02-22T07:35:44.388Z,20.03
2016-02-22T07:36:44.359Z,19.95
2016-02-22T07:37:44.330Z,20.02
2016-02-22T07:38:44.333Z,20.03
2016-02-22T07:39:44.320Z,20.03
2016-02-22T07:40:44.292Z,20.12
2016-02-22T07:41:44.279Z,20
2016-02-22T07:42:44.251Z,20.05
2016-02-22T07:43:44.237Z,20
2016-02-22T07:44:44.224Z,20
2016-02-22T07:45:44.212Z,19.95
2016-02-22T07:46:44.214Z,20
2016-02-22T07:47:44.170Z,20.15
2016-02-22T07:48:44.173Z,20
2016-02-22T07:49:44.144Z,20
2016-02-22T07:50:44.131Z,20.02
2016-02-22T07:51:44.103Z,19.98
2016-02-22T07:52:44.106Z,20.03
2016-02-22T07:53:44.077Z,19.98
2016-02-22T07:54:44.064Z,20
2016-02-22T07:55:44.051Z,19.97
2016-02-22T07:56:44.022Z,20
2016-02-22T07:57:44.025Z,20.1
2016-02-22T07:58:43.997Z,19.98
2016-02-22T07:59:43.983Z,20.02
2016-02-22T08:00:43.971Z,20.15
2016-02-22T08:01:43.974Z,20.12
2016-02-22T08:02:43.930Z,20.05
2016-02-22T08:03:43.916Z,20.12
2016-02-22T08:04:43.902Z,20.1
2016-02-22T08:05:43.891Z,20.1
2016-02-22T08:06:43.877Z,20.13
2016-02-22T08:07:43.973Z,20.09
2016-02-22T08:08:43.821Z,20.09
2016-02-22T08:09:43.824Z,20.09
2016-02-22T08:10:43.794Z,20.13
2016-02-22T08:11:43.796Z,20.18
2016-02-22T08:12:43.769Z,20.12
2016-02-22T08:13:43.740Z,20.16
2016-02-22T08:14:43.742Z,20.18
2016-02-22T08:15:46.948Z,20.09
2016-02-22T08:16:44.389Z,20.24
2016-02-22T08:17:46.220Z,20.13
2016-02-22T08:18:44.315Z,20.24
2016-02-22T08:19:46.209Z,20.2
2016-02-22T08:20:47.884Z,20.09
2016-02-22T08:21:47.637Z,20.12
2016-02-22T08:22:47.326Z,20.18
2016-02-22T08:23:47.611Z,20.23
2016-02-22T08:24:47.520Z,20.23
2016-02-22T08:25:47.616Z,20.24
2016-02-22T08:26:46.837Z,20.23
2016-02-22T08:27:47.418Z,20.27
2016-02-22T08:28:47.280Z,20.33
2016-02-22T08:29:47.267Z,20.33
2016-02-22T08:30:47.505Z,20.28
2016-02-22T08:31:47.022Z,20.28
2016-02-22T08:32:47.010Z,20.2
2016-02-22T08:33:47.403Z,20.18
2016-02-22T08:34:46.530Z,20.08
2016-02-22T08:35:45.893Z,20.15
2016-02-22T08:36:43.364Z,19.97
2016-02-22T08:37:43.366Z,19.95
2016-02-22T08:38:43.339Z,19.76
2016-02-22T08:39:43.341Z,19.61
2016-02-22T08:40:43.313Z,19.39
2016-02-22T08:41:43.285Z,19.25
2016-02-22T08:42:43.302Z,19.11
2016-02-22T08:43:43.258Z,19.05
2016-02-22T08:44:43.261Z,18.95
2016-02-22T08:45:43.232Z,18.86
2016-02-22T08:46:43.235Z,18.91
2016-02-22T08:47:43.191Z,19.15
2016-02-22T08:48:43.178Z,19.31
2016-02-22T08:49:43.165Z,19.23
2016-02-22T08:50:43.151Z,19.38
2016-02-22T08:51:43.140Z,19.51
2016-02-22T08:52:43.111Z,19.57
2016-02-22T08:53:43.128Z,19.65
2016-02-22T08:54:43.084Z,19.58
2016-02-22T08:55:43.055Z,19.57
2016-02-22T08:56:43.059Z,19.55
2016-02-22T08:57:43.030Z,19.63
2016-02-22T08:58:43.017Z,19.54
2016-02-22T08:59:43.004Z,19.72
2016-02-22T09:00:42.992Z,19.57
2016-02-22T09:01:42.963Z,19.54
2016-02-22T09:02:42.965Z,19.57
2016-02-22T09:03:42.936Z,19.6
2016-02-22T09:04:42.939Z,19.55
2016-02-22T09:05:42.896Z,19.69
2016-02-22T09:06:42.913Z,19.68
2016-02-22T09:07:42.885Z,19.7
2016-02-22T09:08:42.857Z,19.7
2016-02-22T09:09:42.828Z,19.68
2016-02-22T09:10:42.815Z,19.55
2016-02-22T09:11:42.802Z,19.68
2016-02-22T09:12:42.805Z,19.63
2016-02-22T09:13:42.760Z,19.7
2016-02-22T09:14:42.748Z,19.68
2016-02-22T09:15:42.750Z,19.65
2016-02-22T09:16:42.737Z,19.65
2016-02-22T09:17:42.709Z,19.7
2016-02-22T09:18:42.681Z,19.66
2016-02-22T09:19:42.684Z,19.66
2016-02-22T09:20:42.654Z,19.69
2016-02-22T09:21:42.626Z,19.6
2016-02-22T09:22:42.612Z,19.61
2016-02-22T09:23:42.600Z,19.75
2016-02-22T09:24:43.134Z,19.73
2016-02-22T09:25:42.574Z,19.68
2016-02-22T09:26:42.561Z,19.68
2016-02-22T09:27:42.548Z,19.68
2016-02-22T09:28:42.364Z,19.68
2016-02-22T09:29:42.506Z,19.66
2016-02-22T09:30:42.494Z,19.76
2016-02-22T09:31:42.481Z,19.75
2016-02-22T09:32:42.452Z,19.76
2016-02-22T09:33:42.439Z,19.73
2016-02-22T09:34:42.427Z,19.75
2016-02-22T09:35:42.413Z,19.76
2016-02-22T09:36:42.400Z,19.73
2016-02-22T09:37:42.388Z,19.83
2016-02-22T09:38:42.375Z,19.78
2016-02-22T09:39:42.346Z,19.75
2016-02-22T09:40:42.318Z,19.8
2016-02-22T09:41:42.305Z,19.8
2016-02-22T09:42:42.291Z,19.75
2016-02-22T09:43:42.279Z,19.83
2016-02-22T09:44:42.250Z,19.75
2016-02-22T09:45:42.238Z,19.83
2016-02-22T09:46:42.224Z,19.78
2016-02-22T09:47:42.211Z,19.78
2016-02-22T09:48:42.182Z,19.83
2016-02-22T09:49:42.170Z,19.79
2016-02-22T09:50:42.157Z,19.78
2016-02-22T09:51:42.144Z,19.78
2016-02-22T09:52:42.116Z,19.8
2016-02-22T09:53:42.102Z,19.84
2016-02-22T09:54:42.074Z,19.86
2016-02-22T09:55:42.092Z,19.86
2016-02-22T09:56:42.063Z,19.78
2016-02-22T09:57:42.051Z,19.83
2016-02-22T09:58:42.039Z,19.83
2016-02-22T09:59:42.009Z,19.83
2016-02-22T10:00:41.997Z,19.94
2016-02-22T10:01:41.983Z,19.91
2016-02-22T10:02:41.955Z,19.88
2016-02-22T10:03:41.942Z,19.84
2016-02-22T10:04:41.929Z,19.84
2016-02-22T10:05:41.916Z,19.9
2016-02-22T10:06:41.903Z,19.86
2016-02-22T10:07:41.890Z,19.87
2016-02-22T10:08:41.861Z,19.88
2016-02-22T10:09:41.848Z,19.88
2016-02-22T10:10:41.835Z,19.87
2016-02-22T10:11:41.823Z,19.93
2016-02-22T10:12:41.794Z,19.83
2016-02-22T10:13:41.781Z,19.84
2016-02-22T10:14:41.769Z,19.88
2016-02-22T10:15:41.740Z,19.8
2016-02-22T10:16:41.726Z,19.88
2016-02-22T10:17:41.730Z,19.87
2016-02-22T10:18:41.701Z,19.87
2016-02-22T10:19:41.673Z,19.91
2016-02-22T10:20:41.659Z,19.78
2016-02-22T10:21:41.646Z,19.87
2016-02-22T10:22:41.634Z,19.88
2016-02-22T10:23:41.621Z,19.84
2016-02-22T10:24:41.592Z,19.87
2016-02-22T10:25:41.579Z,19.91
2016-02-22T10:26:41.598Z,19.88
2016-02-22T10:27:41.569Z,19.94
2016-02-22T10:28:41.540Z,19.83
2016-02-22T10:29:41.542Z,19.84
2016-02-22T10:30:41.499Z,19.86
2016-02-22T10:31:41.486Z,19.9
2016-02-22T10:32:41.473Z,19.9
2016-02-22T10:33:41.444Z,19.88
2016-02-22T10:34:41.431Z,19.8
2016-02-22T10:35:41.419Z,19.83
2016-02-22T10:36:41.405Z,19.88
2016-02-22T10:37:41.393Z,19.93
2016-02-22T10:38:41.364Z,19.91
2016-02-22T10:39:41.352Z,19.88
2016-02-22T10:40:41.338Z,19.9
2016-02-22T10:41:41.325Z,19.9
2016-02-22T10:42:41.937Z,19.93
2016-02-22T10:43:41.299Z,19.91
2016-02-22T10:44:41.271Z,19.94
2016-02-22T10:45:41.258Z,19.88
2016-02-22T10:46:41.245Z,19.9
2016-02-22T10:47:41.232Z,19.87
2016-02-22T10:48:41.235Z,19.9
2016-02-22T10:49:41.206Z,19.91
2016-02-22T10:50:41.178Z,19.9
2016-02-22T10:51:41.149Z,19.88
2016-02-22T10:52:41.137Z,19.88
2016-02-22T10:53:41.123Z,19.91
2016-02-22T10:54:41.110Z,19.9
2016-02-22T10:55:41.098Z,19.9
2016-02-22T10:56:41.069Z,19.91
2016-02-22T10:57:41.056Z,19.91
2016-02-22T10:58:41.043Z,19.9
2016-02-22T10:59:41.031Z,19.87
2016-02-22T11:00:41.017Z,19.91
2016-02-22T11:01:40.989Z,19.93
2016-02-22T11:02:40.991Z,19.91
2016-02-22T11:03:40.963Z,19.84
2016-02-22T11:04:40.950Z,19.87
2016-02-22T11:05:40.937Z,19.84
2016-02-22T11:06:40.924Z,19.87
2016-02-22T11:07:40.911Z,19.86
2016-02-22T11:08:40.882Z,19.88
2016-02-22T11:09:40.854Z,19.88
2016-02-22T11:10:40.841Z,19.84
2016-02-22T11:11:40.827Z,19.83
2016-02-22T11:12:40.815Z,19.87
2016-02-22T11:13:40.802Z,19.9
2016-02-22T11:14:40.789Z,19.9
2016-02-22T11:15:41.213Z,19.88
2016-02-22T11:16:40.748Z,19.86
2016-02-22T11:17:40.718Z,19.91
2016-02-22T11:18:40.722Z,19.87
2016-02-22T11:19:40.693Z,19.88
2016-02-22T11:20:40.680Z,19.9
2016-02-22T11:21:40.667Z,19.83
2016-02-22T11:22:40.654Z,19.87
2016-02-22T11:23:40.626Z,19.79
2016-02-22T11:24:40.613Z,19.91
2016-02-22T11:25:40.615Z,19.9
2016-02-22T11:26:40.587Z,19.93
2016-02-22T11:27:40.559Z,19.86
2016-02-22T11:28:40.545Z,19.87
2016-02-22T11:29:40.533Z,19.83
2016-02-22T11:30:40.535Z,19.79
2016-02-22T11:31:40.507Z,19.83
2016-02-22T11:32:40.478Z,19.93
2016-02-22T11:33:40.481Z,19.93
2016-02-22T11:34:40.452Z,19.88
2016-02-22T11:35:40.439Z,19.9
2016-02-22T11:36:40.427Z,19.83
2016-02-22T11:37:40.397Z,19.84
2016-02-22T11:38:40.385Z,19.8
2016-02-22T11:39:40.372Z,19.93
2016-02-22T11:40:40.359Z,19.86
2016-02-22T11:41:40.346Z,19.93
2016-02-22T11:42:40.333Z,19.8
2016-02-22T11:43:40.304Z,19.83
2016-02-22T11:44:40.292Z,19.84
2016-02-22T11:45:40.279Z,19.87
2016-02-22T11:46:40.250Z,19.88
2016-02-22T11:47:40.237Z,19.9
2016-02-22T11:48:40.224Z,19.83
2016-02-22T11:49:40.212Z,19.93
2016-02-22T11:50:40.199Z,19.87
2016-02-22T11:51:40.185Z,19.9
2016-02-22T11:52:40.156Z,19.87
2016-02-22T11:53:40.176Z,19.88
2016-02-22T11:54:40.131Z,19.88
2016-02-22T11:55:40.103Z,19.88
2016-02-22T11:56:40.089Z,19.94
2016-02-22T11:57:40.109Z,19.79
2016-02-22T11:58:40.064Z,19.91
2016-02-22T11:59:40.051Z,19.93
2016-02-22T12:00:40.022Z,19.86
2016-02-22T12:01:40.009Z,19.79
2016-02-22T12:02:39.997Z,19.9
2016-02-22T12:03:39.983Z,19.86
2016-02-22T12:04:39.970Z,19.9
2016-02-22T12:05:39.941Z,19.91
2016-02-22T12:06:39.929Z,19.87
2016-02-22T12:07:39.916Z,19.87
2016-02-22T12:08:39.903Z,19.87
2016-02-22T12:09:39.874Z,19.9
2016-02-22T12:10:39.878Z,19.87
2016-02-22T12:11:39.849Z,19.84
2016-02-22T12:12:39.836Z,19.87
2016-02-22T12:13:39.807Z,19.84
2016-02-22T12:14:39.793Z,19.86
2016-02-22T12:15:39.625Z,19.88
2016-02-22T12:16:39.785Z,19.9
2016-02-22T12:17:39.755Z,19.87
2016-02-22T12:18:39.742Z,19.84
2016-02-22T12:19:39.730Z,19.86
2016-02-22T12:20:39.716Z,19.86
2016-02-22T12:21:39.688Z,19.86
2016-02-22T12:22:39.675Z,19.84
2016-02-22T12:23:39.663Z,19.84
2016-02-22T12:24:39.649Z,19.84
2016-02-22T12:25:39.621Z,19.84
2016-02-22T12:26:39.451Z,19.88
2016-02-22T12:27:39.594Z,19.8
2016-02-22T12:28:39.567Z,19.87
2016-02-22T12:29:39.554Z,19.8
2016-02-22T12:30:39.540Z,19.78
2016-02-22T12:31:39.527Z,19.88
2016-02-22T12:32:39.515Z,19.83
2016-02-22T12:33:39.501Z,19.93
2016-02-22T12:34:39.473Z,19.86
2016-02-22T12:35:39.460Z,19.83
2016-02-22T12:36:39.448Z,19.87
2016-02-22T12:37:39.418Z,19.87
2016-02-22T12:38:39.422Z,19.86
2016-02-22T12:39:39.408Z,19.84
2016-02-22T12:40:39.410Z,19.83
2016-02-22T12:41:39.352Z,19.84
2016-02-22T12:42:39.339Z,19.84
2016-02-22T12:43:39.325Z,19.87
2016-02-22T12:44:39.312Z,19.83
2016-02-22T12:45:39.284Z,19.84
2016-02-22T12:46:39.271Z,19.84
2016-02-22T12:47:39.274Z,19.86
2016-02-22T12:48:39.260Z,19.86
2016-02-22T12:49:39.232Z,19.83
2016-02-22T12:50:39.204Z,19.9
2016-02-22T12:51:39.191Z,19.87
2016-02-22T12:52:39.177Z,19.8
2016-02-22T12:53:39.185Z,19.78
2016-02-22T12:54:39.141Z,19.83
2016-02-22T12:55:39.112Z,19.84
2016-02-22T12:56:39.115Z,19.86
2016-02-22T12:57:39.087Z,19.76
2016-02-22T12:58:39.074Z,19.8
2016-02-22T12:59:39.061Z,19.79
2016-02-22T13:00:39.063Z,19.79
2016-02-22T13:01:39.020Z,19.79